createdAt,value
2022-10-28T00:00:01.285Z,66.18
2022-10-28T00:00:14.611Z,66.11
2022-10-28T00:00:47.371Z,66.19
2022-10-28T00:01:07.717Z,66.19
2022-10-28T00:01:22.288Z,66.01
2022-10-28T00:01:35.169Z,65.97
2022-10-28T00:01:48.390Z,66.00
2022-10-28T00:02:01.363Z,66.03
2022-10-28T00:02:14.289Z,66.05
2022-10-28T00:02:27.176Z,66.05
2022-10-28T00:02:40.956Z,66.01
2022-10-28T00:02:54.086Z,66.02
2022-10-28T00:03:07.182Z,66.10
2022-10-28T00:03:20.051Z,66.12
2022-10-28T00:03:32.965Z,66.08
2022-10-28T00:03:47.491Z,66.13
2022-10-28T00:04:00.828Z,66.16
2022-10-28T00:04:33.555Z,66.11
2022-10-28T00:04:46.373Z,66.03
2022-10-28T00:04:59.168Z,65.95
2022-10-28T00:05:11.974Z,65.79
2022-10-28T00:05:24.845Z,65.65
2022-10-28T00:05:37.647Z,65.63
2022-10-28T00:05:50.611Z,65.61
2022-10-28T00:06:11.294Z,65.65
2022-10-28T00:06:32.644Z,65.52
2022-10-28T00:07:03.993Z,65.59
2022-10-28T00:07:16.844Z,65.69
2022-10-28T00:07:29.887Z,65.92
2022-10-28T00:07:43.192Z,66.11
2022-10-28T00:07:56.166Z,66.18
2022-10-28T00:08:09.053Z,66.26
2022-10-28T00:08:21.959Z,66.17
2022-10-28T00:08:34.839Z,66.05
2022-10-28T00:09:11.282Z,66.01
2022-10-28T00:09:25.184Z,65.77
2022-10-28T00:09:37.996Z,65.75
2022-10-28T00:09:50.878Z,65.86
2022-10-28T00:10:23.623Z,65.94
2022-10-28T00:10:39.464Z,66.26
2022-10-28T00:10:54.826Z,66.32
2022-10-28T00:11:32.472Z,66.36
2022-10-28T00:11:45.714Z,66.36
2022-10-28T00:11:58.551Z,66.22
2022-10-28T00:12:11.424Z,66.22
2022-10-28T00:12:24.676Z,66.35
2022-10-28T00:13:08.216Z,66.36
2022-10-28T00:13:21.400Z,66.14
2022-10-28T00:13:34.573Z,66.08
2022-10-28T00:13:47.817Z,66.05
2022-10-28T00:14:04.428Z,66.09
2022-10-28T00:14:35.493Z,66.18
2022-10-28T00:14:48.337Z,66.13
2022-10-28T00:15:01.157Z,66.21
2022-10-28T00:15:14.022Z,66.21
2022-10-28T00:15:26.821Z,66.13
2022-10-28T00:15:39.635Z,66.17
2022-10-28T00:15:52.480Z,66.21
2022-10-28T00:16:19.736Z,66.23
2022-10-28T00:16:33.849Z,66.26
2022-10-28T00:16:46.669Z,66.29
2022-10-28T00:16:59.499Z,66.29
2022-10-28T00:17:12.716Z,66.30
2022-10-28T00:17:45.414Z,66.36
2022-10-28T00:18:18.165Z,66.32
2022-10-28T00:18:30.972Z,66.32
2022-10-28T00:18:44.008Z,66.27
2022-10-28T00:18:58.320Z,66.23
2022-10-28T00:19:11.786Z,66.30
2022-10-28T00:19:27.528Z,66.28
2022-10-28T00:19:40.423Z,66.24
2022-10-28T00:19:53.234Z,66.29
2022-10-28T00:20:25.973Z,66.41
2022-10-28T00:20:38.771Z,66.45
2022-10-28T00:20:51.571Z,66.41
2022-10-28T00:21:06.906Z,66.45
2022-10-28T00:21:21.939Z,66.44
2022-10-28T00:21:35.781Z,66.44
2022-10-28T00:21:48.690Z,66.43
2022-10-28T00:22:01.509Z,66.35
2022-10-28T00:22:34.227Z,66.28
2022-10-28T00:22:47.096Z,66.18
2022-10-28T00:22:59.894Z,66.10
2022-10-28T00:23:12.714Z,66.08
2022-10-28T00:23:26.017Z,66.02
2022-10-28T00:23:38.856Z,65.95
2022-10-28T00:24:12.512Z,65.93
2022-10-28T00:24:25.424Z,65.91
2022-10-28T00:24:58.161Z,65.99
2022-10-28T00:25:11.007Z,66.24
2022-10-28T00:25:24.975Z,66.23
2022-10-28T00:25:37.829Z,66.18
2022-10-28T00:25:54.557Z,66.11
2022-10-28T00:26:31.091Z,66.03
2022-10-28T00:26:43.999Z,66.13
2022-10-28T00:26:57.286Z,66.12
2022-10-28T00:27:10.083Z,66.08
2022-10-28T00:27:22.975Z,65.97
2022-10-28T00:27:35.804Z,66.04
2022-10-28T00:27:49.117Z,66.16
2022-10-28T00:28:01.957Z,66.06
2022-10-28T00:28:14.857Z,66.07
2022-10-28T00:28:27.653Z,66.08
2022-10-28T00:29:05.287Z,66.01
2022-10-28T00:29:19.086Z,65.97
2022-10-28T00:29:32.277Z,65.95
2022-10-28T00:30:05.378Z,66.03
2022-10-28T00:30:38.126Z,66.17
2022-10-28T00:31:11.830Z,66.23
2022-10-28T00:31:25.759Z,66.08
2022-10-28T00:31:38.716Z,66.10
2022-10-28T00:31:52.662Z,66.21
2022-10-28T00:32:05.686Z,66.20
2022-10-28T00:32:18.534Z,66.14
2022-10-28T00:32:31.585Z,66.06
2022-10-28T00:32:44.423Z,66.11
2022-10-28T00:32:57.262Z,66.11
2022-10-28T00:33:10.076Z,66.19
2022-10-28T00:33:22.893Z,66.24
2022-10-28T00:33:35.754Z,66.20
2022-10-28T00:34:11.517Z,66.17
2022-10-28T00:34:24.410Z,66.25
2022-10-28T00:34:37.707Z,66.20
2022-10-28T00:34:50.541Z,66.25
2022-10-28T00:35:03.408Z,66.18
2022-10-28T00:35:36.139Z,66.21
2022-10-28T00:36:09.161Z,66.21
2022-10-28T00:36:26.721Z,66.31
2022-10-28T00:36:41.662Z,66.38
2022-10-28T00:36:54.455Z,66.26
2022-10-28T00:37:07.263Z,66.17
2022-10-28T00:37:20.100Z,66.11
2022-10-28T00:37:33.055Z,66.09
2022-10-28T00:37:45.845Z,66.13
2022-10-28T00:37:58.687Z,66.21
2022-10-28T00:38:11.516Z,66.19
2022-10-28T00:38:24.341Z,66.25
2022-10-28T00:38:57.230Z,66.25
2022-10-28T00:39:23.486Z,66.39
2022-10-28T00:39:36.350Z,66.33
2022-10-28T00:39:49.200Z,66.40
2022-10-28T00:40:02.018Z,66.43
2022-10-28T00:40:14.834Z,66.45
2022-10-28T00:40:27.627Z,66.46
2022-10-28T00:40:40.467Z,66.50
2022-10-28T00:41:15.558Z,66.45
2022-10-28T00:41:53.070Z,66.60
2022-10-28T00:42:07.268Z,66.72
2022-10-28T00:42:21.138Z,66.70
2022-10-28T00:42:33.968Z,66.67
2022-10-28T00:42:46.780Z,66.65
2022-10-28T00:42:59.591Z,66.57
2022-10-28T00:43:43.049Z,66.57
2022-10-28T00:43:57.950Z,66.51
2022-10-28T00:44:48.603Z,66.49
2022-10-28T00:45:02.172Z,66.54
2022-10-28T00:45:14.994Z,66.46
2022-10-28T00:45:27.839Z,66.45
2022-10-28T00:45:40.927Z,66.36
2022-10-28T00:46:20.217Z,66.49
2022-10-28T00:46:53.336Z,66.48
2022-10-28T00:47:52.191Z,66.47
2022-10-28T00:48:24.508Z,66.36
2022-10-28T00:48:41.308Z,66.17
2022-10-28T00:49:32.978Z,66.15
2022-10-28T00:49:46.398Z,66.43
2022-10-28T00:50:18.800Z,66.38
2022-10-28T00:50:54.321Z,66.40
2022-10-28T00:51:07.834Z,66.43
2022-10-28T00:51:21.567Z,66.40
2022-10-28T00:51:34.413Z,66.24
2022-10-28T00:51:48.494Z,66.13
2022-10-28T00:52:10.851Z,66.08
2022-10-28T00:52:44.497Z,66.11
2022-10-28T00:53:03.195Z,66.15
2022-10-28T00:53:21.538Z,66.21
2022-10-28T00:53:34.547Z,66.31
2022-10-28T00:53:48.261Z,66.33
2022-10-28T00:54:01.099Z,66.31
2022-10-28T00:54:13.923Z,66.28
2022-10-28T00:54:26.732Z,66.21
2022-10-28T00:54:39.598Z,66.13
2022-10-28T00:55:14.138Z,66.15
2022-10-28T00:55:45.677Z,66.06
2022-10-28T00:55:59.865Z,66.18
2022-10-28T00:56:34.074Z,66.17
2022-10-28T00:56:48.548Z,66.27
2022-10-28T00:57:22.464Z,66.32
2022-10-28T00:57:56.722Z,66.37
2022-10-28T00:58:09.629Z,66.32
2022-10-28T00:58:42.377Z,66.30
2022-10-28T00:58:56.158Z,66.35
2022-10-28T00:59:17.179Z,66.45
2022-10-28T00:59:32.440Z,66.40
2022-10-28T00:59:47.401Z,66.50
2022-10-28T01:00:20.220Z,66.53
2022-10-28T01:00:33.019Z,66.53
2022-10-28T01:01:04.416Z,66.48
2022-10-28T01:01:37.216Z,66.54
2022-10-28T01:01:50.235Z,66.52
2022-10-28T01:02:03.583Z,66.49
2022-10-28T01:02:16.826Z,66.44
2022-10-28T01:02:29.766Z,66.39
2022-10-28T01:02:47.708Z,66.35
2022-10-28T01:03:00.635Z,66.32
2022-10-28T01:03:13.455Z,66.28
2022-10-28T01:03:26.299Z,66.29
2022-10-28T01:03:39.199Z,66.35
2022-10-28T01:03:51.998Z,66.42
2022-10-28T01:04:05.208Z,66.43
2022-10-28T01:04:37.960Z,66.27
2022-10-28T01:04:51.095Z,66.17
2022-10-28T01:05:04.196Z,66.16
2022-10-28T01:05:22.674Z,66.17
2022-10-28T01:05:55.395Z,66.27
2022-10-28T01:06:08.221Z,66.17
2022-10-28T01:06:21.054Z,66.13
2022-10-28T01:06:33.891Z,66.08
2022-10-28T01:06:46.799Z,66.06
2022-10-28T01:07:00.379Z,66.11
2022-10-28T01:07:13.589Z,66.16
2022-10-28T01:07:26.394Z,66.23
2022-10-28T01:07:39.212Z,66.31
2022-10-28T01:07:52.424Z,66.40
2022-10-28T01:08:05.544Z,66.36
2022-10-28T01:08:18.343Z,66.49
2022-10-28T01:08:32.202Z,66.54
2022-10-28T01:09:05.018Z,66.49
2022-10-28T01:09:17.909Z,66.48
2022-10-28T01:09:30.763Z,66.48
2022-10-28T01:09:43.638Z,66.55
2022-10-28T01:10:16.487Z,66.54
2022-10-28T01:10:57.932Z,66.50
2022-10-28T01:11:25.676Z,66.40
2022-10-28T01:12:15.706Z,66.37
2022-10-28T01:12:46.508Z,66.15
2022-10-28T01:13:11.752Z,66.57
2022-10-28T01:13:31.605Z,66.51
2022-10-28T01:13:59.288Z,66.50
2022-10-28T01:14:28.214Z,66.51
2022-10-28T01:15:08.495Z,66.50
2022-10-28T01:15:23.949Z,66.54
2022-10-28T01:15:45.197Z,66.40
2022-10-28T01:16:06.996Z,66.34
2022-10-28T01:16:28.472Z,66.39
2022-10-28T01:16:53.325Z,66.38
2022-10-28T01:17:08.583Z,66.51
2022-10-28T01:17:33.511Z,66.41
2022-10-28T01:17:49.046Z,66.28
2022-10-28T01:18:17.096Z,66.38
2022-10-28T01:18:44.266Z,66.42
2022-10-28T01:19:53.848Z,66.47
2022-10-28T01:20:51.457Z,66.43
2022-10-28T01:21:46.174Z,66.49
2022-10-28T01:22:44.999Z,66.55
2022-10-28T01:23:23.408Z,66.31
2022-10-28T01:24:03.677Z,66.23
2022-10-28T01:24:27.067Z,66.10
2022-10-28T01:24:50.089Z,66.05
2022-10-28T01:25:53.311Z,66.06
2022-10-28T01:26:36.659Z,66.39
2022-10-28T01:27:59.038Z,66.49
2022-10-28T01:28:23.780Z,66.54
2022-10-28T01:28:48.436Z,66.47
2022-10-28T01:29:33.116Z,66.43
2022-10-28T01:30:26.912Z,66.67
2022-10-28T01:30:57.595Z,66.43
2022-10-28T01:31:54.505Z,66.38
2022-10-28T01:32:50.761Z,66.33
2022-10-28T01:33:15.209Z,66.17
2022-10-28T01:33:34.227Z,66.27
2022-10-28T01:34:27.828Z,66.40
2022-10-28T01:34:53.695Z,66.30
2022-10-28T01:35:24.867Z,66.54
2022-10-28T01:35:49.157Z,66.32
2022-10-28T01:36:27.527Z,66.20
2022-10-28T01:36:50.612Z,66.13
2022-10-28T01:37:15.660Z,66.17
2022-10-28T01:37:36.612Z,66.31
2022-10-28T01:38:11.231Z,66.31
2022-10-28T01:38:56.010Z,66.30
2022-10-28T01:39:47.469Z,66.52
2022-10-28T01:40:07.384Z,66.62
2022-10-28T01:40:54.467Z,66.60
2022-10-28T01:41:22.480Z,66.63
2022-10-28T01:41:44.001Z,66.74
2022-10-28T01:41:59.665Z,66.62
2022-10-28T01:42:32.265Z,66.70
2022-10-28T01:43:05.179Z,66.75
2022-10-28T01:43:21.830Z,66.68
2022-10-28T01:59:44.545Z,67.00
2022-10-28T01:59:58.327Z,66.79
2022-10-28T02:00:11.833Z,66.64
2022-10-28T02:00:24.990Z,66.66
2022-10-28T02:00:38.293Z,66.56
2022-10-28T02:00:51.356Z,66.56
2022-10-28T02:01:05.462Z,66.53
2022-10-28T02:01:38.307Z,66.56
2022-10-28T02:02:14.702Z,66.76
2022-10-28T02:02:47.499Z,66.67
2022-10-28T02:03:01.352Z,66.85
2022-10-28T02:03:14.328Z,66.80
2022-10-28T02:03:28.160Z,66.67
2022-10-28T02:03:41.186Z,66.64
2022-10-28T02:03:54.050Z,66.57
2022-10-28T02:04:07.083Z,66.65
2022-10-28T02:04:39.812Z,66.66
2022-10-28T02:05:05.473Z,66.74
2022-10-28T02:06:25.867Z,66.67
2022-10-28T02:06:38.858Z,66.64
2022-10-28T02:06:56.183Z,66.67
2022-10-28T02:07:09.322Z,66.56
2022-10-28T02:07:22.273Z,66.47
2022-10-28T02:07:50.949Z,66.43
2022-10-28T02:08:20.928Z,66.49
2022-10-28T02:08:44.628Z,66.46
2022-10-28T02:09:23.028Z,66.51
2022-10-28T02:10:15.452Z,66.65
2022-10-28T02:10:34.244Z,66.52
2022-10-28T02:51:56.381Z,66.37
2022-10-28T02:52:09.426Z,66.41
2022-10-28T02:52:22.476Z,66.40
2022-10-28T02:52:35.818Z,66.44
2022-10-28T02:53:19.420Z,66.45
2022-10-28T02:53:59.683Z,66.35
2022-10-28T02:54:35.089Z,66.26
2022-10-28T02:55:08.257Z,66.37
2022-10-28T02:55:21.464Z,66.50
2022-10-28T02:55:36.764Z,66.55
2022-10-28T02:55:51.270Z,66.63
2022-10-28T02:56:04.337Z,66.50
2022-10-28T02:56:55.427Z,66.51
2022-10-28T02:57:44.949Z,66.44
2022-10-28T02:57:57.760Z,66.56
2022-10-28T02:58:10.654Z,66.46
2022-10-28T02:58:23.668Z,66.36
2022-10-28T02:58:56.399Z,66.36
2022-10-28T02:59:11.407Z,66.32
2022-10-28T02:59:24.760Z,66.27
2022-10-28T03:00:01.141Z,66.35
2022-10-28T03:00:34.161Z,66.48
2022-10-28T03:01:07.633Z,66.64
2022-10-28T03:01:20.899Z,66.44
2022-10-28T03:01:53.608Z,66.38
2022-10-28T03:02:14.787Z,66.55
2022-10-28T03:02:28.239Z,66.47
2022-10-28T03:02:41.287Z,66.58
2022-10-28T03:02:54.133Z,66.60
2022-10-28T03:03:26.869Z,66.66
2022-10-28T03:03:40.003Z,66.64
2022-10-28T03:03:53.222Z,66.60
2022-10-28T03:04:06.370Z,66.69
2022-10-28T03:04:19.369Z,66.74
2022-10-28T03:04:52.235Z,66.79
2022-10-28T03:05:05.940Z,66.78
2022-10-28T03:05:18.807Z,66.73
2022-10-28T03:05:51.550Z,66.71
2022-10-28T03:06:04.423Z,66.68
2022-10-28T03:06:17.289Z,66.67
2022-10-28T03:06:30.162Z,66.58
2022-10-28T03:06:42.988Z,66.67
2022-10-28T03:06:55.786Z,66.62
2022-10-28T03:07:08.578Z,66.60
2022-10-28T03:07:41.472Z,66.54
2022-10-28T03:07:54.645Z,66.40
2022-10-28T03:08:07.680Z,66.45
2022-10-28T03:08:40.459Z,66.50
2022-10-28T03:08:53.805Z,66.50
2022-10-28T03:09:06.622Z,66.50
2022-10-28T03:09:39.433Z,66.62
2022-10-28T03:10:12.261Z,66.53
2022-10-28T03:10:25.155Z,66.49
2022-10-28T03:10:37.959Z,66.48
2022-10-28T03:10:51.023Z,66.50
2022-10-28T03:11:03.827Z,66.50
2022-10-28T03:11:16.749Z,66.41
2022-10-28T03:11:29.542Z,66.42
2022-10-28T03:11:42.482Z,66.38
2022-10-28T03:11:55.316Z,66.36
2022-10-28T03:12:08.190Z,66.40
2022-10-28T03:12:21.020Z,66.36
2022-10-28T03:12:53.786Z,66.38
2022-10-28T03:13:26.563Z,66.49
2022-10-28T03:13:39.365Z,66.56
2022-10-28T03:13:52.254Z,66.58
2022-10-28T03:14:05.250Z,66.62
2022-10-28T03:14:18.041Z,66.66
2022-10-28T03:14:30.878Z,66.65
2022-10-28T03:14:43.756Z,66.73
2022-10-28T03:14:56.596Z,66.58
2022-10-28T03:15:09.776Z,66.59
2022-10-28T03:15:22.784Z,66.70
2022-10-28T03:15:35.584Z,66.69
2022-10-28T03:15:48.417Z,66.61
2022-10-28T03:16:01.245Z,66.66
2022-10-28T03:16:14.081Z,66.64
2022-10-28T03:16:26.904Z,66.56
2022-10-28T03:16:39.707Z,66.50
2022-10-28T03:16:52.552Z,66.64
2022-10-28T03:17:05.511Z,66.56
2022-10-28T03:17:18.333Z,66.57
2022-10-28T03:17:31.738Z,66.58
2022-10-28T03:17:44.549Z,66.62
2022-10-28T03:17:57.392Z,66.65
2022-10-28T03:18:10.209Z,66.51
2022-10-28T03:18:23.030Z,66.53
2022-10-28T03:18:35.863Z,66.58
2022-10-28T03:18:49.099Z,66.68
2022-10-28T03:19:06.538Z,66.72
2022-10-28T03:19:19.341Z,66.69
2022-10-28T03:19:32.162Z,66.66
2022-10-28T03:19:44.979Z,66.66
2022-10-28T03:19:57.820Z,66.60
2022-10-28T03:20:11.110Z,66.51
2022-10-28T03:20:23.926Z,66.50
2022-10-28T03:20:36.768Z,66.46
2022-10-28T03:21:10.464Z,66.43
2022-10-28T03:21:43.240Z,66.41
2022-10-28T03:21:56.081Z,66.55
2022-10-28T03:22:30.656Z,66.52
2022-10-28T03:22:44.250Z,66.51
2022-10-28T03:22:57.225Z,66.56
2022-10-28T03:23:10.194Z,66.64
2022-10-28T03:23:23.052Z,66.68
2022-10-28T03:23:35.946Z,66.76
2022-10-28T03:23:48.771Z,66.73
2022-10-28T03:24:01.611Z,66.67
2022-10-28T03:24:14.452Z,66.66
2022-10-28T03:24:27.440Z,66.67
2022-10-28T03:24:40.265Z,66.69
2022-10-28T03:24:53.069Z,66.69
2022-10-28T03:25:05.996Z,66.69
2022-10-28T03:25:18.808Z,66.74
2022-10-28T03:25:31.670Z,66.63
2022-10-28T03:25:44.525Z,66.66
2022-10-28T03:25:57.373Z,66.64
2022-10-28T03:26:10.191Z,66.70
2022-10-28T03:26:23.006Z,66.65
2022-10-28T03:26:35.820Z,66.59
2022-10-28T03:27:08.537Z,66.58
2022-10-28T03:27:21.374Z,66.54
2022-10-28T03:27:34.189Z,66.48
2022-10-28T03:28:06.931Z,66.47
2022-10-28T03:28:24.390Z,66.12
2022-10-28T03:28:37.259Z,66.12
2022-10-28T03:29:10.001Z,66.17
2022-10-28T03:29:45.694Z,66.39
2022-10-28T03:29:59.051Z,66.28
2022-10-28T03:30:11.947Z,66.36
2022-10-28T03:30:24.763Z,66.33
2022-10-28T03:30:37.678Z,66.47
2022-10-28T03:30:50.469Z,66.53
2022-10-28T03:31:23.214Z,66.62
2022-10-28T03:31:36.048Z,66.69
2022-10-28T03:31:48.926Z,66.62
2022-10-28T03:32:01.749Z,66.56
2022-10-28T03:32:14.685Z,66.51
2022-10-28T03:32:31.514Z,66.54
2022-10-28T03:32:44.373Z,66.62
2022-10-28T03:33:17.112Z,66.59
2022-10-28T03:33:49.890Z,66.50
2022-10-28T03:34:22.622Z,66.52
2022-10-28T03:34:35.423Z,66.78
2022-10-28T03:34:48.250Z,66.76
2022-10-28T03:35:21.014Z,66.71
2022-10-28T03:35:33.869Z,66.69
2022-10-28T03:35:46.714Z,66.62
2022-10-28T03:35:59.520Z,66.58
2022-10-28T03:36:32.391Z,66.54
2022-10-28T03:36:45.235Z,66.57
2022-10-28T03:36:58.127Z,66.53
2022-10-28T03:37:11.145Z,66.54
2022-10-28T03:37:23.957Z,66.56
2022-10-28T03:37:36.828Z,66.58
2022-10-28T03:38:09.582Z,66.49
2022-10-28T03:38:22.375Z,66.58
2022-10-28T03:38:35.213Z,66.65
2022-10-28T03:38:48.050Z,66.64
2022-10-28T03:39:00.894Z,66.61
2022-10-28T03:39:13.685Z,66.58
2022-10-28T03:39:26.551Z,66.54
2022-10-28T03:40:02.374Z,66.56
2022-10-28T03:40:35.114Z,66.56
2022-10-28T03:40:49.098Z,66.54
2022-10-28T03:41:01.940Z,66.58
2022-10-28T03:41:14.870Z,66.56
2022-10-28T03:41:27.695Z,66.66
2022-10-28T03:41:40.484Z,66.65
2022-10-28T03:41:53.379Z,66.66
2022-10-28T03:42:44.555Z,66.63
2022-10-28T03:42:57.395Z,66.45
2022-10-28T03:43:30.136Z,66.47
2022-10-28T03:43:43.083Z,66.55
2022-10-28T03:43:55.916Z,66.56
2022-10-28T03:44:28.680Z,66.63
2022-10-28T03:44:49.424Z,66.60
2022-10-28T03:45:02.217Z,66.52
2022-10-28T03:45:15.091Z,66.48
2022-10-28T03:45:36.057Z,66.45
2022-10-28T03:45:49.127Z,66.43
2022-10-28T03:46:11.089Z,66.59
2022-10-28T03:46:23.917Z,66.54
2022-10-28T03:46:36.720Z,66.56
2022-10-28T03:46:49.572Z,66.66
2022-10-28T03:47:02.402Z,66.67
2022-10-28T03:47:15.276Z,66.63
2022-10-28T03:47:28.361Z,66.68
2022-10-28T03:48:01.091Z,66.69
2022-10-28T03:48:14.009Z,66.84
2022-10-28T03:48:26.826Z,66.83
2022-10-28T03:48:39.632Z,66.85
2022-10-28T03:48:52.461Z,66.71
2022-10-28T03:49:05.265Z,66.74
2022-10-28T03:49:18.156Z,66.78
2022-10-28T03:49:50.901Z,66.84
2022-10-28T03:50:03.841Z,66.79
2022-10-28T03:50:16.645Z,66.76
2022-10-28T03:50:29.430Z,66.74
2022-10-28T03:50:42.305Z,66.78
2022-10-28T03:51:15.054Z,66.80
2022-10-28T03:51:27.876Z,66.81
2022-10-28T03:51:40.694Z,66.78
2022-10-28T03:51:53.529Z,66.79
2022-10-28T03:52:06.400Z,66.71
2022-10-28T03:52:19.220Z,66.70
2022-10-28T03:52:52.015Z,66.67
2022-10-28T03:53:27.603Z,66.53
2022-10-28T03:53:43.336Z,66.46
2022-10-28T03:53:56.121Z,66.57
2022-10-28T03:54:08.914Z,66.56
2022-10-28T03:54:21.739Z,66.63
2022-10-28T03:54:34.576Z,66.73
2022-10-28T03:54:47.469Z,66.69
2022-10-28T03:55:00.345Z,66.76
2022-10-28T03:55:13.673Z,66.76
2022-10-28T03:55:27.567Z,66.75
2022-10-28T03:56:18.863Z,66.78
2022-10-28T03:56:31.655Z,66.67
2022-10-28T03:56:44.483Z,66.63
2022-10-28T03:56:57.308Z,66.58
2022-10-28T03:57:10.133Z,66.66
2022-10-28T03:57:22.964Z,66.74
2022-10-28T03:57:35.785Z,66.76
2022-10-28T03:57:48.671Z,66.75
2022-10-28T03:58:21.556Z,66.68
2022-10-28T03:58:37.293Z,66.84
2022-10-28T03:59:06.038Z,66.92
2022-10-28T03:59:20.272Z,66.87
2022-10-28T03:59:33.347Z,66.87
2022-10-28T03:59:46.169Z,66.93
2022-10-28T04:00:18.929Z,66.86
2022-10-28T04:00:31.744Z,66.95
2022-10-28T04:00:44.548Z,66.92
2022-10-28T04:00:57.428Z,66.98
2022-10-28T04:01:10.498Z,66.95
2022-10-28T04:01:23.875Z,66.90
2022-10-28T04:01:36.858Z,66.91
2022-10-28T04:01:49.933Z,66.87
2022-10-28T04:02:02.915Z,66.78
2022-10-28T04:02:16.004Z,66.78
2022-10-28T04:02:28.984Z,66.74
2022-10-28T04:02:41.853Z,66.73
2022-10-28T04:02:55.236Z,66.71
2022-10-28T04:03:08.240Z,66.69
2022-10-28T04:03:39.711Z,66.71
2022-10-28T04:03:52.528Z,66.71
2022-10-28T04:04:05.745Z,66.71
2022-10-28T04:04:18.579Z,66.68
2022-10-28T04:04:31.484Z,66.67
2022-10-28T04:04:44.302Z,66.67
2022-10-28T04:04:57.146Z,66.73
2022-10-28T04:05:09.979Z,66.75
2022-10-28T04:05:23.030Z,66.73
2022-10-28T04:05:35.877Z,66.70
2022-10-28T04:05:48.816Z,66.58
2022-10-28T04:06:01.645Z,66.57
2022-10-28T04:06:14.555Z,66.63
2022-10-28T04:06:27.427Z,66.75
2022-10-28T04:06:40.597Z,66.73
2022-10-28T04:06:53.410Z,66.77
2022-10-28T04:07:06.429Z,66.78
2022-10-28T04:07:19.285Z,66.82
2022-10-28T04:07:32.151Z,66.75
2022-10-28T04:07:45.016Z,66.69
2022-10-28T04:07:57.818Z,66.67
2022-10-28T04:08:10.664Z,66.69
2022-10-28T04:08:23.512Z,66.71
2022-10-28T04:08:37.183Z,66.73
2022-10-28T04:09:09.934Z,66.71
2022-10-28T04:09:23.743Z,66.73
2022-10-28T04:09:36.618Z,66.67
2022-10-28T04:09:51.450Z,66.68
2022-10-28T04:10:24.154Z,66.67
2022-10-28T04:10:37.135Z,66.59
2022-10-28T04:10:49.973Z,66.52
2022-10-28T04:11:02.811Z,66.53
2022-10-28T04:11:15.662Z,66.47
2022-10-28T04:11:28.459Z,66.47
2022-10-28T04:11:41.242Z,66.45
2022-10-28T04:11:54.110Z,66.46
2022-10-28T04:12:22.754Z,66.50
2022-10-28T04:12:35.599Z,66.42
2022-10-28T04:12:48.441Z,66.43
2022-10-28T04:13:05.283Z,66.37
2022-10-28T04:13:38.088Z,66.39
2022-10-28T04:14:10.819Z,66.50
2022-10-28T04:14:23.610Z,66.40
2022-10-28T04:14:36.454Z,66.38
2022-10-28T04:14:51.692Z,66.36
2022-10-28T04:15:04.894Z,66.45
2022-10-28T04:15:17.835Z,66.41
2022-10-28T04:15:30.841Z,66.34
2022-10-28T04:15:43.752Z,66.42
2022-10-28T04:15:56.691Z,66.37
2022-10-28T04:16:09.551Z,66.37
2022-10-28T04:16:42.290Z,66.42
2022-10-28T04:16:55.102Z,66.42
2022-10-28T04:17:07.919Z,66.39
2022-10-28T04:17:20.751Z,66.44
2022-10-28T04:17:36.365Z,66.51
2022-10-28T04:17:49.194Z,66.55
2022-10-28T04:18:02.212Z,66.65
2022-10-28T04:18:31.931Z,66.63
2022-10-28T04:18:44.727Z,66.72
2022-10-28T04:18:57.695Z,66.74
2022-10-28T04:19:19.950Z,66.63
2022-10-28T04:19:32.816Z,66.54
2022-10-28T04:19:45.658Z,66.63
2022-10-28T04:19:58.458Z,66.77
2022-10-28T04:20:19.345Z,66.72
2022-10-28T04:20:32.284Z,66.61
2022-10-28T04:20:45.921Z,66.69
2022-10-28T04:20:58.749Z,66.76
2022-10-28T04:21:12.081Z,66.74
2022-10-28T04:21:24.954Z,66.73
2022-10-28T04:21:57.682Z,66.67
2022-10-28T04:22:10.631Z,66.47
2022-10-28T04:22:23.557Z,66.42
2022-10-28T04:22:36.353Z,66.50
2022-10-28T04:22:57.138Z,66.55
2022-10-28T04:23:13.276Z,66.60
2022-10-28T04:23:26.162Z,66.67
2022-10-28T04:23:39.033Z,66.75
2022-10-28T04:24:11.792Z,66.77
2022-10-28T04:24:24.652Z,66.62
2022-10-28T04:24:37.465Z,66.65
2022-10-28T04:25:10.486Z,66.54
2022-10-28T04:25:23.683Z,66.54
2022-10-28T04:25:36.488Z,66.51
2022-10-28T04:25:53.671Z,66.43
2022-10-28T04:26:06.589Z,66.43
2022-10-28T04:26:52.428Z,66.46
2022-10-28T04:27:25.208Z,66.24
2022-10-28T04:27:38.121Z,66.13
2022-10-28T04:28:10.888Z,66.09
2022-10-28T04:28:26.536Z,65.89
2022-10-28T04:28:39.399Z,65.83
2022-10-28T04:28:52.270Z,65.68
2022-10-28T04:29:05.241Z,65.72
2022-10-28T04:29:18.255Z,65.69
2022-10-28T04:29:51.943Z,65.75
2022-10-28T04:30:05.321Z,65.94
2022-10-28T04:30:38.114Z,65.90
2022-10-28T04:30:51.027Z,65.99
2022-10-28T04:31:03.876Z,66.04
2022-10-28T04:31:19.695Z,66.22
2022-10-28T04:31:32.495Z,66.36
2022-10-28T04:31:48.597Z,66.32
2022-10-28T04:32:04.349Z,66.22
2022-10-28T04:32:17.165Z,66.16
2022-10-28T04:32:30.156Z,66.09
2022-10-28T04:32:43.581Z,66.11
2022-10-28T04:32:56.568Z,66.12
2022-10-28T04:33:48.084Z,66.11
2022-10-28T04:34:00.937Z,66.24
2022-10-28T04:34:13.764Z,66.36
2022-10-28T04:34:26.629Z,66.22
2022-10-28T04:34:59.360Z,66.33
2022-10-28T04:35:12.510Z,66.37
2022-10-28T04:35:45.336Z,66.23
2022-10-28T04:35:58.151Z,66.01
2022-10-28T04:36:10.988Z,66.09
2022-10-28T04:36:23.784Z,66.18
2022-10-28T04:36:53.913Z,66.30
2022-10-28T04:37:06.846Z,66.53
2022-10-28T04:37:40.027Z,66.51
2022-10-28T04:37:53.080Z,66.56
2022-10-28T04:38:07.168Z,66.57
2022-10-28T04:38:41.824Z,66.56
2022-10-28T04:38:54.720Z,66.48
2022-10-28T04:39:08.357Z,66.53
2022-10-28T04:39:21.447Z,66.51
2022-10-28T04:39:34.225Z,66.49
2022-10-28T04:39:47.073Z,66.53
2022-10-28T04:39:59.941Z,66.54
2022-10-28T04:40:32.686Z,66.45
2022-10-28T04:40:48.353Z,66.46
2022-10-28T04:41:01.158Z,66.46
2022-10-28T04:41:14.477Z,66.49
2022-10-28T04:41:45.948Z,66.56
2022-10-28T04:42:18.663Z,66.65
2022-10-28T04:42:47.165Z,66.66
2022-10-28T04:42:59.994Z,66.71
2022-10-28T04:43:12.888Z,66.70
2022-10-28T04:43:25.718Z,66.56
2022-10-28T04:43:38.620Z,66.66
2022-10-28T04:44:11.376Z,66.64
2022-10-28T04:44:24.187Z,66.86
2022-10-28T04:44:37.852Z,66.92
2022-10-28T04:44:51.048Z,66.86
2022-10-28T04:45:04.152Z,66.79
2022-10-28T04:45:17.010Z,66.83
2022-10-28T04:45:49.744Z,66.79
2022-10-28T04:46:05.992Z,66.69
2022-10-28T04:46:18.865Z,66.59
2022-10-28T04:46:31.736Z,66.68
2022-10-28T04:47:04.547Z,66.54
2022-10-28T04:47:17.665Z,66.54
2022-10-28T04:47:46.982Z,66.56
2022-10-28T04:48:00.400Z,66.59
2022-10-28T04:48:34.043Z,66.70
2022-10-28T04:48:47.535Z,66.62
2022-10-28T04:49:00.343Z,66.55
2022-10-28T04:49:13.165Z,66.50
2022-10-28T04:49:26.001Z,66.49
2022-10-28T04:50:00.808Z,66.35
2022-10-28T04:50:33.627Z,66.19
2022-10-28T04:50:46.540Z,66.16
2022-10-28T04:50:59.418Z,66.19
2022-10-28T04:51:32.150Z,66.29
2022-10-28T04:51:44.952Z,66.52
2022-10-28T04:51:57.819Z,66.52
2022-10-28T04:52:13.430Z,66.63
2022-10-28T04:52:28.549Z,66.65
2022-10-28T04:52:41.405Z,66.64
2022-10-28T04:53:14.136Z,66.68
2022-10-28T04:53:31.277Z,66.65
2022-10-28T04:53:44.117Z,66.60
2022-10-28T04:53:56.955Z,66.61
2022-10-28T04:54:09.793Z,66.65
2022-10-28T04:54:22.631Z,66.61
2022-10-28T04:54:35.469Z,66.61
2022-10-28T04:54:48.305Z,66.50
2022-10-28T04:55:21.050Z,66.42
2022-10-28T04:55:33.867Z,66.33
2022-10-28T04:55:46.691Z,66.40
2022-10-28T04:55:59.700Z,66.26
2022-10-28T04:56:12.562Z,66.20
2022-10-28T04:56:45.295Z,66.26
2022-10-28T04:56:58.119Z,66.11
2022-10-28T04:57:10.952Z,66.23
2022-10-28T04:57:23.766Z,66.27
2022-10-28T04:57:36.601Z,66.15
2022-10-28T04:58:00.033Z,66.09
2022-10-28T04:58:32.756Z,66.06
2022-10-28T04:58:47.221Z,66.02
2022-10-28T04:59:38.723Z,66.11
2022-10-28T04:59:51.976Z,66.42
2022-10-28T05:00:24.840Z,66.49
2022-10-28T05:00:37.632Z,66.40
2022-10-28T05:00:50.448Z,66.42
2022-10-28T05:01:09.567Z,66.45
2022-10-28T05:01:42.310Z,66.42
2022-10-28T05:01:55.304Z,66.32
2022-10-28T05:02:08.364Z,66.35
2022-10-28T05:02:23.095Z,66.30
2022-10-28T05:02:36.095Z,66.33
2022-10-28T05:02:49.154Z,66.53
2022-10-28T05:03:40.416Z,66.47
2022-10-28T05:03:53.538Z,66.40
2022-10-28T05:04:06.348Z,66.45
2022-10-28T05:04:19.206Z,66.48
2022-10-28T05:04:51.969Z,66.58